KAL23 RKSI-RJTT
Flight info
| Callsign | KAL23 |
|---|---|
| Flight time | N/A |
| Altitude | 39000 |
| Route | EGOBA2Y EGOBA Y697 LANAT Y71 XAC |
| Aircraft | B77W/H-SDE1E2E3FGHIJ2J3J4J5M1RWXY/LB1D1 |
Departure
| Time | N/A |
|---|---|
| Airport | Incheon International Airport (RKSI) |
Arrival
| Time | 2026-04-30 18:28 |
|---|---|
| Airport | Tokyo Haneda International Airport (RJTT) |
| Time | Latitude | Longitude | Altitude | Speed | Heading |
|---|---|---|---|---|---|
| 2026-04-30 17:39 | 35.27419 | 135.04102 | 38758 ft | 512 kts | 124° |
| 2026-04-30 17:42 | 35.14211 | 135.44656 | 38802 ft | 515 kts | 124° |
| 2026-04-30 17:43 | 35.07515 | 135.65022 | 38811 ft | 518 kts | 124° |
| 2026-04-30 17:44 | 35.00346 | 135.90046 | 38846 ft | 539 kts | 111° |
| 2026-04-30 17:47 | 34.93887 | 136.30388 | 38860 ft | 537 kts | 111° |
| 2026-04-30 17:48 | 34.88686 | 136.61560 | 38844 ft | 536 kts | 111° |
| 2026-04-30 17:50 | 34.82789 | 136.97118 | 38866 ft | 540 kts | 107° |
| 2026-04-30 17:52 | 34.79812 | 137.24352 | 38857 ft | 543 kts | 106° |
| 2026-04-30 17:54 | 34.75308 | 137.63731 | 38921 ft | 543 kts | 107° |
| 2026-04-30 17:56 | 34.71672 | 138.00354 | 38976 ft | 546 kts | 104° |
| 2026-04-30 17:58 | 34.71518 | 138.28453 | 38991 ft | 556 kts | 96° |
| 2026-04-30 18:00 | 34.71592 | 138.59238 | 39012 ft | 554 kts | 96° |
| 2026-04-30 18:01 | 34.71598 | 138.65532 | 39039 ft | 554 kts | 96° |
| 2026-04-30 18:02 | 34.71599 | 138.79652 | 37877 ft | 562 kts | 96° |
| 2026-04-30 18:02 | 34.71538 | 138.93910 | 36944 ft | 559 kts | 96° |
| 2026-04-30 18:03 | 34.71453 | 139.08065 | 35913 ft | 559 kts | 95° |
| 2026-04-30 18:04 | 34.71354 | 139.22266 | 34748 ft | 561 kts | 95° |
| 2026-04-30 18:05 | 34.71203 | 139.41211 | 33208 ft | 557 kts | 94° |
| 2026-04-30 18:06 | 34.71718 | 139.60059 | 31332 ft | 558 kts | 90° |
| 2026-04-30 18:07 | 34.72320 | 139.78779 | 29308 ft | 552 kts | 91° |
| 2026-04-30 18:08 | 34.72692 | 139.92602 | 28116 ft | 539 kts | 91° |
| 2026-04-30 18:09 | 34.73159 | 140.10365 | 26434 ft | 529 kts | 91° |
| 2026-04-30 18:10 | 34.78671 | 140.26519 | 24794 ft | 523 kts | 59° |
| 2026-04-30 18:11 | 34.88083 | 140.38722 | 24164 ft | 480 kts | 30° |
| 2026-04-30 18:11 | 34.96085 | 140.45672 | 24084 ft | 459 kts | 31° |
| 2026-04-30 18:12 | 35.04597 | 140.47824 | 23956 ft | 402 kts | 342° |
| 2026-04-30 18:13 | 35.09629 | 140.45628 | 23914 ft | 376 kts | 328° |
| 2026-04-30 18:13 | 35.15971 | 140.42358 | 23875 ft | 367 kts | 329° |
| 2026-04-30 18:14 | 35.21362 | 140.39658 | 23672 ft | 343 kts | 328° |
| 2026-04-30 18:15 | 35.28282 | 140.37923 | 21135 ft | 347 kts | 352° |
| 2026-04-30 18:15 | 35.35382 | 140.37653 | 18705 ft | 331 kts | 344° |
| 2026-04-30 18:16 | 35.39419 | 140.35492 | 16974 ft | 313 kts | 327° |
| 2026-04-30 18:16 | 35.43267 | 140.33064 | 15267 ft | 308 kts | 324° |
| 2026-04-30 18:17 | 35.44840 | 140.31395 | 14419 ft | 296 kts | 303° |
| 2026-04-30 18:17 | 35.46082 | 140.29404 | 13627 ft | 293 kts | 303° |
| 2026-04-30 18:17 | 35.48161 | 140.25238 | 11829 ft | 280 kts | 274° |
| 2026-04-30 18:18 | 35.48085 | 140.22916 | 10994 ft | 269 kts | 249° |
| 2026-04-30 18:18 | 35.47287 | 140.20899 | 10199 ft | 261 kts | 231° |
| 2026-04-30 18:18 | 35.46074 | 140.19271 | 9313 ft | 257 kts | 214° |
| 2026-04-30 18:18 | 35.44531 | 140.18203 | 8443 ft | 254 kts | 202° |
| 2026-04-30 18:19 | 35.42908 | 140.17349 | 7620 ft | 252 kts | 200° |
| 2026-04-30 18:19 | 35.41346 | 140.16559 | 7323 ft | 232 kts | 200° |
| 2026-04-30 18:19 | 35.39914 | 140.15832 | 7113 ft | 215 kts | 200° |
| 2026-04-30 18:19 | 35.38597 | 140.15148 | 7001 ft | 195 kts | 200° |
| 2026-04-30 18:20 | 35.37327 | 140.14490 | 7009 ft | 205 kts | 200° |
| 2026-04-30 18:20 | 35.35993 | 140.13792 | 6996 ft | 213 kts | 201° |
| 2026-04-30 18:20 | 35.34593 | 140.13051 | 6988 ft | 221 kts | 201° |
| 2026-04-30 18:20 | 35.33206 | 140.12307 | 6990 ft | 214 kts | 201° |
| 2026-04-30 18:21 | 35.31864 | 140.11584 | 6977 ft | 208 kts | 201° |
| 2026-04-30 18:21 | 35.30550 | 140.10882 | 6989 ft | 205 kts | 201° |
| 2026-04-30 18:21 | 35.29384 | 140.09920 | 6835 ft | 209 kts | 228° |
| 2026-04-30 18:21 | 35.28640 | 140.08409 | 6581 ft | 210 kts | 236° |
| 2026-04-30 18:22 | 35.27922 | 140.06825 | 6117 ft | 216 kts | 233° |
| 2026-04-30 18:22 | 35.26677 | 140.03473 | 5308 ft | 232 kts | 266° |
| 2026-04-30 18:22 | 35.27202 | 140.01568 | 4878 ft | 243 kts | 295° |
| 2026-04-30 18:23 | 35.28100 | 139.99781 | 4489 ft | 247 kts | 296° |
| 2026-04-30 18:23 | 35.29099 | 139.98091 | 4113 ft | 250 kts | 317° |
| 2026-04-30 18:23 | 35.30551 | 139.96902 | 3751 ft | 252 kts | 331° |
| 2026-04-30 18:23 | 35.32077 | 139.95889 | 3588 ft | 249 kts | 332° |
| 2026-04-30 18:24 | 35.35086 | 139.93839 | 3096 ft | 245 kts | 331° |
| 2026-04-30 18:24 | 35.36540 | 139.92827 | 3038 ft | 237 kts | 331° |
| 2026-04-30 18:24 | 35.37967 | 139.91832 | 3005 ft | 238 kts | 331° |
| 2026-04-30 18:25 | 35.39438 | 139.90808 | 2693 ft | 253 kts | 331° |
| 2026-04-30 18:25 | 35.42470 | 139.88696 | 2375 ft | 241 kts | 331° |
| 2026-04-30 18:25 | 35.43898 | 139.87696 | 2272 ft | 231 kts | 331° |
| 2026-04-30 18:26 | 35.46588 | 139.85728 | 1808 ft | 225 kts | 332° |
| 2026-04-30 18:26 | 35.47944 | 139.84773 | 1512 ft | 224 kts | 331° |
| 2026-04-30 18:26 | 35.49199 | 139.83886 | 1246 ft | 224 kts | 332° |
| 2026-04-30 18:27 | 35.51727 | 139.82098 | 652 ft | 185 kts | 330° |
| 2026-04-30 18:27 | 35.52748 | 139.81374 | 402 ft | 153 kts | 330° |
| 2026-04-30 18:28 | 35.54324 | 139.80238 | 36 ft | 120 kts | 330° |
| 2026-04-30 18:28 | 35.54974 | 139.79812 | 29 ft | 86 kts | 327° |
| 2026-04-30 18:28 | 35.55456 | 139.79390 | 28 ft | 14 kts | 307° |
| 2026-04-30 18:29 | 35.55507 | 139.79288 | 28 ft | 14 kts | 291° |
| 2026-04-30 18:29 | 35.55289 | 139.79175 | 29 ft | 18 kts | 191° |
| 2026-04-30 18:30 | 35.55104 | 139.78988 | 28 ft | 0 kts | 238° |